createdAt,value
2024-01-20T00:02:07.675Z,13.53
2024-01-20T00:04:36.801Z,12.73
2024-01-20T00:07:04.944Z,14.27
2024-01-20T00:09:38.765Z,12.20
2024-01-20T00:12:13.977Z,13.27
2024-01-20T00:14:41.497Z,13.40
2024-01-20T00:17:20.596Z,15.10
2024-01-20T00:19:54.774Z,15.73
2024-01-20T00:22:23.885Z,14.10
2024-01-20T00:24:52.503Z,15.80
2024-01-20T00:27:21.216Z,14.90
2024-01-20T00:29:49.277Z,17.20
2024-01-20T00:32:17.454Z,15.93
2024-01-20T00:34:55.613Z,13.93
2024-01-20T00:37:33.860Z,12.73
2024-01-20T00:40:01.367Z,15.63
2024-01-20T00:42:29.193Z,14.10
2024-01-20T00:44:56.663Z,16.23
2024-01-20T00:47:24.342Z,16.07
2024-01-20T00:49:52.258Z,13.63
2024-01-20T00:52:19.773Z,16.07
2024-01-20T00:54:48.709Z,16.17
2024-01-20T00:57:16.257Z,17.30
2024-01-20T00:59:45.954Z,18.17
2024-01-20T01:02:13.648Z,16.40
2024-01-20T01:04:41.278Z,17.10
2024-01-20T01:07:08.797Z,12.60
2024-01-20T01:09:36.316Z,14.70
2024-01-20T01:12:05.390Z,16.27
2024-01-20T01:14:32.941Z,14.40
2024-01-20T01:17:00.557Z,16.30
2024-01-20T01:19:28.230Z,14.57
2024-01-20T01:21:55.765Z,16.53
2024-01-20T01:24:23.258Z,17.30
2024-01-20T01:26:50.809Z,16.33
2024-01-20T01:29:19.904Z,15.53
2024-01-20T01:31:47.469Z,14.90
2024-01-20T01:34:15.075Z,15.97
2024-01-20T01:36:42.642Z,13.50
2024-01-20T01:39:09.281Z,16.00
2024-01-20T01:41:36.803Z,16.20
2024-01-20T01:44:04.444Z,15.17
2024-01-20T01:46:33.384Z,15.30
2024-01-20T01:49:01.079Z,15.70
2024-01-20T01:51:29.120Z,16.20
2024-01-20T01:53:56.774Z,16.27
2024-01-20T01:56:24.346Z,15.40
2024-01-20T01:58:51.883Z,14.83
2024-01-20T02:01:19.455Z,18.10
2024-01-20T02:03:48.560Z,16.97
2024-01-20T02:06:16.248Z,16.70
2024-01-20T02:08:43.919Z,15.73
2024-01-20T02:11:11.714Z,15.97
2024-01-20T02:13:39.313Z,15.67
2024-01-20T02:16:07.151Z,16.77
2024-01-20T02:18:34.834Z,19.37
2024-01-20T02:21:06.187Z,18.27
2024-01-20T02:23:38.874Z,16.83
2024-01-20T02:26:06.422Z,16.13
2024-01-20T02:28:33.962Z,14.70
2024-01-20T02:31:01.517Z,14.30
2024-01-20T02:33:29.161Z,17.13
2024-01-20T02:35:56.733Z,20.53
2024-01-20T02:38:24.370Z,17.70
2024-01-20T02:40:53.270Z,18.03
2024-01-20T02:43:20.815Z,18.67
2024-01-20T02:45:48.276Z,16.43
2024-01-20T02:48:17.914Z,16.33
2024-01-20T02:50:46.432Z,19.33
2024-01-20T02:53:13.947Z,18.43
2024-01-20T02:55:41.455Z,19.50
2024-01-20T02:58:10.304Z,18.37
2024-01-20T03:00:37.947Z,18.67
2024-01-20T03:03:06.073Z,17.60
2024-01-20T03:05:33.715Z,18.13
2024-01-20T03:08:01.250Z,20.17
2024-01-20T03:10:28.820Z,18.03
2024-01-20T03:12:56.400Z,17.90
2024-01-20T03:15:25.825Z,20.13
2024-01-20T03:17:53.471Z,20.57
2024-01-20T03:20:21.042Z,18.03
2024-01-20T03:22:48.563Z,18.90
2024-01-20T03:25:16.055Z,18.10
2024-01-20T03:27:43.573Z,18.77
2024-01-20T03:30:11.553Z,18.27
2024-01-20T03:32:39.511Z,16.80
2024-01-20T03:35:07.329Z,17.73
2024-01-20T03:37:34.848Z,15.03
2024-01-20T03:40:02.422Z,17.37
2024-01-20T03:42:30.190Z,12.37
2024-01-20T03:44:57.857Z,18.97
2024-01-20T03:47:25.373Z,16.27
2024-01-20T03:49:54.471Z,14.93
2024-01-20T03:52:22.112Z,16.13
2024-01-20T03:54:49.585Z,14.43
2024-01-20T03:57:17.149Z,13.80
2024-01-20T03:59:44.692Z,13.90
2024-01-20T04:02:12.443Z,15.40
2024-01-20T04:04:40.053Z,15.77
2024-01-20T04:07:08.894Z,14.97
2024-01-20T04:09:36.412Z,13.20
2024-01-20T04:12:04.051Z,15.63
2024-01-20T04:14:32.236Z,14.37
2024-01-20T04:16:59.714Z,14.00
2024-01-20T04:19:27.222Z,17.80
2024-01-20T04:21:54.784Z,15.90
2024-01-20T04:24:23.642Z,17.13
2024-01-20T04:26:51.281Z,19.50
2024-01-20T04:29:18.807Z,16.93
2024-01-20T04:31:46.307Z,16.90
2024-01-20T04:34:13.970Z,19.33
2024-01-20T04:36:41.582Z,18.33
2024-01-20T04:39:09.088Z,15.97
2024-01-20T04:41:38.730Z,16.70
2024-01-20T04:44:06.249Z,16.23
2024-01-20T04:46:33.817Z,17.50
2024-01-20T04:49:01.400Z,17.37
2024-01-20T04:51:28.969Z,16.23
2024-01-20T04:53:56.518Z,15.97
2024-01-20T04:56:24.275Z,18.53
2024-01-20T04:58:54.685Z,16.57
2024-01-20T05:01:22.310Z,18.10
2024-01-20T05:03:49.920Z,20.40
2024-01-20T05:06:17.633Z,15.57
2024-01-20T05:08:45.242Z,17.50
2024-01-20T05:11:12.741Z,18.50
2024-01-20T05:13:40.242Z,16.70
2024-01-20T05:16:09.485Z,15.37
2024-01-20T05:18:37.176Z,17.67
2024-01-20T05:21:05.002Z,16.27
2024-01-20T05:23:32.503Z,15.63
2024-01-20T05:26:00.358Z,14.30
2024-01-20T05:28:27.919Z,18.50
2024-01-20T05:30:55.536Z,14.77
2024-01-20T05:33:24.468Z,19.87
2024-01-20T05:35:52.166Z,17.17
2024-01-20T05:38:19.699Z,17.37
2024-01-20T05:40:47.214Z,15.60
2024-01-20T05:43:14.683Z,16.10
2024-01-20T05:45:42.286Z,12.77
2024-01-20T05:48:10.027Z,13.50
2024-01-20T05:50:39.114Z,14.30
2024-01-20T05:53:06.639Z,13.83
2024-01-20T05:55:35.222Z,15.27
2024-01-20T05:58:03.435Z,15.23
2024-01-20T06:00:31.011Z,16.33
2024-01-20T06:02:58.640Z,14.57
2024-01-20T06:05:26.423Z,15.00
2024-01-20T06:07:55.346Z,12.13
2024-01-20T06:10:22.889Z,14.60
2024-01-20T06:12:50.456Z,16.30
2024-01-20T06:15:18.184Z,16.40
2024-01-20T06:17:45.713Z,15.43
2024-01-20T06:20:13.316Z,15.33
2024-01-20T06:22:40.821Z,14.23
2024-01-20T06:25:10.128Z,15.57
2024-01-20T06:27:37.647Z,13.77
2024-01-20T06:30:05.715Z,13.40
2024-01-20T06:32:33.393Z,12.67
2024-01-20T06:35:00.951Z,15.13
2024-01-20T06:37:28.692Z,15.07
2024-01-20T06:39:56.432Z,14.23
2024-01-20T06:42:25.365Z,13.70
2024-01-20T06:44:55.208Z,14.43
2024-01-20T06:47:23.375Z,16.00
2024-01-20T06:49:51.345Z,16.50
2024-01-20T06:52:18.947Z,13.83
2024-01-20T06:54:46.866Z,15.17
2024-01-20T06:57:14.671Z,17.67
2024-01-20T06:59:43.533Z,16.93
2024-01-20T07:02:11.185Z,17.00
2024-01-20T07:04:38.732Z,16.63
2024-01-20T07:07:08.858Z,16.43
2024-01-20T07:09:41.453Z,15.17
2024-01-20T07:12:09.172Z,12.60
2024-01-20T07:14:37.585Z,14.20
2024-01-20T07:17:07.021Z,14.80
2024-01-20T07:19:34.569Z,12.40
2024-01-20T07:22:02.070Z,12.50
2024-01-20T07:24:30.258Z,12.97
2024-01-20T07:26:57.920Z,12.87
2024-01-20T07:29:25.519Z,11.73
2024-01-20T07:31:53.040Z,11.97
2024-01-20T07:34:22.516Z,12.00
2024-01-20T07:36:50.134Z,10.40
2024-01-20T07:39:17.673Z,12.73
2024-01-20T07:41:45.151Z,14.07
2024-01-20T07:44:15.208Z,14.60
2024-01-20T07:46:42.771Z,12.23
2024-01-20T07:49:10.362Z,13.10
2024-01-20T07:51:39.756Z,15.30
2024-01-20T07:54:07.402Z,14.70
2024-01-20T07:56:34.913Z,11.40
2024-01-20T07:59:02.416Z,14.90
2024-01-20T08:01:29.941Z,15.03
2024-01-20T08:03:58.720Z,13.77
2024-01-20T08:06:28.238Z,15.63
2024-01-20T08:08:57.158Z,15.57
2024-01-20T08:11:24.888Z,15.77
2024-01-20T08:13:52.876Z,16.43
2024-01-20T08:16:21.060Z,14.73
2024-01-20T08:18:52.678Z,14.03
2024-01-20T08:21:21.741Z,12.70
2024-01-20T08:23:49.649Z,16.17
2024-01-20T08:26:19.004Z,15.20
2024-01-20T08:28:54.380Z,14.60
2024-01-20T08:31:22.070Z,15.97
2024-01-20T08:33:52.537Z,16.37
2024-01-20T08:36:22.153Z,15.87
2024-01-20T08:38:49.777Z,15.37
2024-01-20T08:41:18.679Z,16.13
2024-01-20T08:43:46.384Z,12.83
2024-01-20T08:46:14.048Z,16.50
2024-01-20T08:48:41.761Z,15.03
2024-01-20T08:51:09.695Z,13.97
2024-01-20T08:53:37.253Z,13.13
2024-01-20T08:56:05.427Z,13.63
2024-01-20T08:58:34.420Z,14.27
2024-01-20T09:01:02.025Z,15.07
2024-01-20T09:03:29.703Z,13.43
2024-01-20T09:05:57.759Z,15.13
2024-01-20T09:08:25.389Z,14.33
2024-01-20T09:10:52.983Z,13.77
2024-01-20T09:13:20.507Z,13.17
2024-01-20T09:15:49.762Z,12.70
2024-01-20T09:18:19.029Z,14.20
2024-01-20T09:20:47.988Z,13.90
2024-01-20T09:23:15.640Z,15.10
2024-01-20T09:25:44.300Z,16.90
2024-01-20T09:28:11.907Z,18.20
2024-01-20T09:30:40.440Z,14.70
2024-01-20T09:33:09.726Z,16.80
2024-01-20T09:35:38.794Z,15.80
2024-01-20T09:38:09.199Z,18.13
2024-01-20T09:40:37.918Z,14.80
2024-01-20T09:43:07.920Z,18.23
2024-01-20T09:45:39.809Z,14.83
2024-01-20T09:48:09.856Z,19.17
2024-01-20T09:50:37.609Z,18.23
2024-01-20T09:53:09.769Z,17.57
2024-01-20T09:55:37.339Z,17.33
2024-01-20T09:58:05.304Z,15.37
2024-01-20T10:00:32.947Z,15.93
2024-01-20T10:03:03.184Z,17.67
2024-01-20T10:05:32.939Z,20.23
2024-01-20T10:08:00.478Z,16.47
2024-01-20T10:10:28.320Z,18.13
2024-01-20T10:12:56.345Z,17.60
2024-01-20T10:15:28.869Z,15.03
2024-01-20T10:17:57.649Z,17.10
2024-01-20T10:20:25.898Z,19.53
2024-01-20T10:22:54.834Z,15.60
2024-01-20T10:25:22.305Z,16.87
2024-01-20T10:27:50.668Z,15.77
2024-01-20T10:30:21.176Z,18.87
2024-01-20T10:33:03.175Z,15.03
2024-01-20T10:35:36.362Z,17.30
2024-01-20T10:38:06.982Z,19.27
2024-01-20T10:40:35.420Z,15.13
2024-01-20T10:43:06.153Z,18.37
2024-01-20T10:45:35.490Z,16.73
2024-01-20T10:48:10.859Z,21.07
2024-01-20T10:50:41.751Z,17.80
2024-01-20T10:53:10.634Z,20.30
2024-01-20T10:55:38.153Z,17.50
2024-01-20T10:58:07.736Z,17.57
2024-01-20T11:00:38.507Z,17.33
2024-01-20T11:03:07.183Z,19.10
2024-01-20T11:05:34.909Z,18.07
2024-01-20T11:08:05.686Z,19.33
2024-01-20T11:10:41.255Z,18.17
2024-01-20T11:13:09.520Z,16.07
2024-01-20T11:15:37.275Z,18.20
2024-01-20T11:18:19.402Z,18.20
2024-01-20T11:20:59.602Z,15.07
2024-01-20T11:23:27.681Z,17.30
2024-01-20T11:25:57.310Z,18.67
2024-01-20T11:28:25.540Z,16.40
2024-01-20T11:30:53.112Z,15.80
2024-01-20T11:33:20.950Z,16.77
2024-01-20T11:35:48.585Z,20.83
2024-01-20T11:38:17.311Z,17.47
2024-01-20T11:40:44.825Z,17.97
2024-01-20T11:43:13.936Z,21.43
2024-01-20T11:45:41.686Z,18.73
2024-01-20T11:48:13.908Z,17.43
2024-01-20T11:50:42.945Z,15.87
2024-01-20T11:53:10.617Z,17.50
2024-01-20T11:55:38.174Z,17.80
2024-01-20T11:58:05.907Z,16.50
2024-01-20T12:00:34.924Z,16.23
2024-01-20T12:03:02.538Z,13.73
2024-01-20T12:05:30.283Z,18.77
2024-01-20T12:07:57.971Z,16.97
2024-01-20T12:10:25.450Z,16.63
2024-01-20T12:12:53.345Z,18.17
2024-01-20T12:15:20.952Z,17.53
2024-01-20T12:17:50.111Z,16.33
2024-01-20T12:20:18.006Z,16.80
2024-01-20T12:22:45.555Z,15.07
2024-01-20T12:25:14.044Z,16.53
2024-01-20T12:27:42.905Z,17.60
2024-01-20T12:30:12.091Z,15.90
2024-01-20T12:32:40.855Z,17.73
2024-01-20T12:35:10.104Z,15.07
2024-01-20T12:37:37.691Z,14.03
2024-01-20T12:40:06.795Z,18.00
2024-01-20T12:42:34.813Z,17.60
2024-01-20T12:45:02.584Z,15.07
2024-01-20T12:47:30.334Z,16.80
2024-01-20T12:49:58.003Z,17.63
2024-01-20T12:52:28.164Z,17.03
2024-01-20T12:54:56.534Z,15.73
2024-01-20T12:57:24.422Z,15.00
2024-01-20T12:59:52.004Z,14.40
2024-01-20T13:02:19.536Z,13.97
2024-01-20T13:04:47.087Z,17.13
2024-01-20T13:07:15.430Z,16.50
2024-01-20T13:09:45.288Z,17.80
2024-01-20T13:12:13.368Z,14.90
2024-01-20T13:14:42.540Z,15.63
2024-01-20T13:17:10.170Z,17.57
2024-01-20T13:19:37.756Z,16.63
2024-01-20T13:22:05.510Z,17.43
2024-01-20T13:24:33.068Z,17.27
2024-01-20T13:27:02.081Z,17.00
2024-01-20T13:29:29.631Z,16.60
2024-01-20T13:31:57.174Z,17.57
2024-01-20T13:34:25.176Z,16.20
2024-01-20T13:36:52.816Z,17.33
2024-01-20T13:39:20.577Z,15.90
2024-01-20T13:41:48.052Z,17.10
2024-01-20T13:44:16.893Z,17.33
2024-01-20T13:46:44.790Z,15.23
2024-01-20T13:49:13.589Z,16.40
2024-01-20T13:51:41.589Z,15.03
2024-01-20T13:54:09.161Z,15.20
2024-01-20T13:56:36.683Z,15.77
2024-01-20T13:59:04.483Z,13.37
2024-01-20T14:01:33.399Z,15.03
2024-01-20T14:04:01.539Z,14.67
2024-01-20T14:06:29.531Z,14.87
2024-01-20T14:08:57.074Z,16.83
2024-01-20T14:11:25.221Z,18.20
2024-01-20T14:13:52.730Z,13.83
2024-01-20T14:16:20.372Z,16.47
2024-01-20T14:18:49.376Z,16.87
2024-01-20T14:21:17.014Z,15.20
2024-01-20T14:23:44.597Z,12.57
2024-01-20T14:26:12.129Z,16.33
2024-01-20T14:28:39.954Z,13.60
2024-01-20T14:31:08.816Z,14.53
2024-01-20T14:33:36.644Z,16.13
2024-01-20T14:36:06.116Z,13.97
2024-01-20T14:38:33.611Z,14.53
2024-01-20T14:41:01.165Z,15.60
2024-01-20T14:43:28.759Z,14.03
2024-01-20T14:45:56.267Z,13.50
2024-01-20T14:48:23.960Z,15.70
2024-01-20T14:50:51.534Z,15.47
2024-01-20T14:53:20.916Z,14.73
2024-01-20T14:55:48.429Z,13.70
2024-01-20T14:58:15.992Z,14.40
2024-01-20T15:00:44.415Z,14.20
2024-01-20T15:03:12.191Z,14.07
2024-01-20T15:05:39.811Z,13.03
2024-01-20T15:08:07.752Z,12.93
2024-01-20T15:10:36.782Z,11.70
2024-01-20T15:13:04.726Z,14.33
2024-01-20T15:15:32.412Z,14.20
2024-01-20T15:17:59.993Z,15.13
2024-01-20T15:20:27.847Z,13.17
2024-01-20T15:22:55.755Z,13.30
2024-01-20T15:25:23.290Z,11.83
2024-01-20T15:27:52.398Z,10.83
2024-01-20T15:30:20.135Z,12.30
2024-01-20T15:32:47.796Z,11.20
2024-01-20T15:35:15.522Z,14.13
2024-01-20T15:37:43.014Z,12.83
2024-01-20T15:40:11.010Z,11.23
2024-01-20T15:42:38.652Z,14.40
2024-01-20T15:45:08.409Z,12.60
2024-01-20T15:47:35.945Z,13.83
2024-01-20T15:50:04.021Z,13.93
2024-01-20T15:52:31.976Z,12.90
2024-01-20T15:55:00.237Z,14.57
2024-01-20T15:57:27.840Z,14.80
2024-01-20T15:59:55.490Z,12.47
2024-01-20T16:02:24.868Z,13.00
2024-01-20T16:04:52.462Z,11.33
2024-01-20T16:07:20.176Z,13.83
2024-01-20T16:09:47.900Z,12.97
2024-01-20T16:12:15.454Z,12.80
2024-01-20T16:14:43.030Z,12.60
2024-01-20T16:17:10.519Z,12.80
2024-01-20T16:19:40.053Z,13.47
2024-01-20T16:22:07.719Z,14.67
2024-01-20T16:24:35.284Z,12.37
2024-01-20T16:27:02.993Z,14.80
2024-01-20T16:29:30.528Z,12.63
2024-01-20T16:31:58.122Z,14.07
2024-01-20T16:34:25.732Z,13.63
2024-01-20T16:36:54.840Z,14.07
2024-01-20T16:39:22.956Z,14.63
2024-01-20T16:41:50.970Z,15.87
2024-01-20T16:44:19.365Z,15.00
2024-01-20T16:46:51.175Z,15.53
2024-01-20T16:49:19.812Z,16.53
2024-01-20T16:51:47.577Z,15.27
2024-01-20T16:54:16.598Z,14.97
2024-01-20T16:56:44.373Z,15.10
2024-01-20T16:59:12.493Z,16.17
2024-01-20T17:01:40.098Z,13.80
2024-01-20T17:04:07.856Z,14.10
2024-01-20T17:06:35.638Z,18.23
2024-01-20T17:09:04.732Z,17.10
2024-01-20T17:11:33.709Z,17.13
2024-01-20T17:14:03.984Z,14.30
2024-01-20T17:16:34.862Z,14.43
2024-01-20T17:19:02.751Z,15.17
2024-01-20T17:21:30.373Z,18.23
2024-01-20T17:23:57.883Z,16.23
2024-01-20T17:26:29.074Z,14.27
2024-01-20T17:28:58.468Z,17.77
2024-01-20T17:31:28.538Z,15.50
2024-01-20T17:33:56.381Z,16.87
2024-01-20T17:36:25.033Z,14.30
2024-01-20T17:38:52.520Z,17.97
2024-01-20T17:41:20.003Z,16.93
2024-01-20T17:43:47.502Z,15.57
2024-01-20T17:46:16.751Z,17.93
2024-01-20T17:48:44.458Z,15.67
2024-01-20T17:51:12.427Z,18.43
2024-01-20T17:53:40.015Z,16.43
2024-01-20T17:56:08.160Z,17.23
2024-01-20T17:58:36.736Z,16.90
2024-01-20T18:01:06.129Z,17.43
2024-01-20T18:03:35.358Z,19.50
2024-01-20T18:06:03.772Z,20.27
2024-01-20T18:08:31.398Z,17.67
2024-01-20T18:10:58.975Z,19.37
2024-01-20T18:13:26.502Z,17.23
2024-01-20T18:16:00.793Z,18.07
2024-01-20T18:18:28.698Z,15.97
2024-01-20T18:20:57.788Z,15.20
2024-01-20T18:23:25.335Z,15.80
2024-01-20T18:25:52.952Z,15.67
2024-01-20T18:28:20.578Z,14.47
2024-01-20T18:30:48.929Z,19.57
2024-01-20T18:33:16.610Z,15.60
2024-01-20T18:35:44.554Z,17.23
2024-01-20T18:38:13.415Z,15.57
2024-01-20T18:40:41.062Z,17.27
2024-01-20T18:43:08.801Z,15.53
2024-01-20T18:45:36.347Z,15.20
2024-01-20T18:48:04.349Z,16.03
2024-01-20T18:50:34.948Z,13.13
2024-01-20T18:53:02.614Z,15.70
2024-01-20T18:55:31.547Z,16.77
2024-01-20T18:57:59.025Z,15.73
2024-01-20T19:00:26.673Z,18.60
2024-01-20T19:02:54.192Z,13.93
2024-01-20T19:05:22.696Z,14.60
2024-01-20T19:07:50.546Z,14.30
2024-01-20T19:10:18.890Z,13.60
2024-01-20T19:12:47.969Z,13.53
2024-01-20T19:15:15.886Z,15.30
2024-01-20T19:17:43.594Z,13.83
2024-01-20T19:20:11.644Z,12.93
2024-01-20T19:22:39.163Z,13.67
2024-01-20T19:25:07.485Z,13.87
2024-01-20T19:27:34.978Z,12.43
2024-01-20T19:30:04.052Z,12.27
2024-01-20T19:32:31.666Z,13.83
2024-01-20T19:34:59.247Z,15.63
2024-01-20T19:37:26.792Z,12.23
2024-01-20T19:39:54.501Z,13.87
2024-01-20T19:42:22.123Z,15.97
2024-01-20T19:44:49.789Z,13.80
2024-01-20T19:47:18.896Z,13.67
2024-01-20T19:49:46.912Z,13.77
2024-01-20T19:52:15.105Z,15.10
2024-01-20T19:54:42.715Z,13.17
2024-01-20T19:57:10.295Z,11.80
2024-01-20T19:59:38.271Z,12.37
2024-01-20T20:02:05.977Z,13.47
2024-01-20T20:04:35.220Z,13.80
2024-01-20T20:07:09.353Z,13.23
2024-01-20T20:09:37.661Z,13.80
2024-01-20T20:12:05.919Z,11.97
2024-01-20T20:14:33.418Z,11.93
2024-01-20T20:17:00.892Z,11.33
2024-01-20T20:19:27.773Z,11.30
2024-01-20T20:21:56.875Z,12.97
2024-01-20T20:24:25.114Z,12.80
2024-01-20T20:26:57.090Z,10.83
2024-01-20T20:29:25.361Z,13.97
2024-01-20T20:31:55.525Z,11.10
2024-01-20T20:34:24.093Z,10.97
2024-01-20T20:36:54.777Z,11.23
2024-01-20T20:39:23.757Z,10.63
2024-01-20T20:41:52.871Z,12.23
2024-01-20T20:44:20.514Z,10.90
2024-01-20T20:46:48.120Z,10.47
2024-01-20T20:49:15.977Z,11.37
2024-01-20T20:51:44.383Z,10.97
2024-01-20T20:54:12.884Z,14.23
2024-01-20T20:56:43.226Z,13.37
2024-01-20T20:59:11.736Z,14.33
2024-01-20T21:01:39.268Z,13.77
2024-01-20T21:04:10.264Z,13.37
2024-01-20T21:06:38.066Z,13.87
2024-01-20T21:09:05.773Z,13.47
2024-01-20T21:11:33.442Z,11.63
2024-01-20T21:14:02.260Z,12.37
2024-01-20T21:16:29.785Z,10.93
2024-01-20T21:18:57.699Z,11.77
2024-01-20T21:21:25.304Z,12.10
2024-01-20T21:23:52.791Z,15.20
2024-01-20T21:26:23.224Z,11.43
2024-01-20T21:28:50.755Z,12.60
2024-01-20T21:31:19.633Z,11.60
2024-01-20T21:33:47.254Z,10.50
2024-01-20T21:36:15.458Z,12.33
2024-01-20T21:38:43.006Z,13.77
2024-01-20T21:41:10.978Z,13.43
2024-01-20T21:43:38.459Z,15.50
2024-01-20T21:46:06.231Z,11.40
2024-01-20T21:48:35.183Z,12.63
2024-01-20T21:51:02.734Z,11.23
2024-01-20T21:53:30.404Z,10.10
2024-01-20T21:55:57.906Z,9.87
2024-01-20T21:58:25.402Z,8.60
2024-01-20T22:00:52.962Z,9.20
2024-01-20T22:03:20.711Z,8.37
2024-01-20T22:05:49.928Z,10.77
2024-01-20T22:08:17.433Z,9.60
2024-01-20T22:10:44.950Z,8.67
2024-01-20T22:13:12.441Z,8.73
2024-01-20T22:15:40.095Z,9.23
2024-01-20T22:18:07.840Z,8.93
2024-01-20T22:20:35.738Z,9.80
2024-01-20T22:23:03.811Z,9.90
2024-01-20T22:25:31.351Z,9.47
2024-01-20T22:27:58.913Z,9.17
2024-01-20T22:30:26.572Z,8.00
2024-01-20T22:32:54.372Z,8.57
2024-01-20T22:35:21.928Z,7.87
2024-01-20T22:37:49.690Z,10.27
2024-01-20T22:40:18.768Z,9.73
2024-01-20T22:42:46.363Z,7.73
2024-01-20T22:45:14.155Z,7.40
2024-01-20T22:47:44.664Z,7.97
2024-01-20T22:50:12.782Z,8.27
2024-01-20T22:52:41.002Z,7.43
2024-01-20T22:55:08.914Z,7.87
2024-01-20T22:57:38.595Z,9.27
2024-01-20T23:00:13.445Z,7.13
2024-01-20T23:02:41.611Z,8.97
2024-01-20T23:05:09.511Z,7.43
2024-01-20T23:07:38.214Z,7.73
2024-01-20T23:10:06.176Z,7.43
2024-01-20T23:12:33.806Z,7.63
2024-01-20T23:15:02.701Z,10.70
2024-01-20T23:17:30.338Z,11.13
2024-01-20T23:19:57.811Z,11.30
2024-01-20T23:22:25.692Z,8.90
2024-01-20T23:24:53.234Z,10.17
2024-01-20T23:27:21.264Z,9.50
2024-01-20T23:29:48.847Z,10.13
2024-01-20T23:32:17.729Z,8.10
2024-01-20T23:34:45.306Z,9.17
2024-01-20T23:37:13.574Z,11.63
2024-01-20T23:39:41.139Z,11.80
2024-01-20T23:42:08.682Z,12.43
2024-01-20T23:44:37.582Z,10.00
2024-01-20T23:47:05.700Z,10.70
2024-01-20T23:49:34.642Z,10.63
2024-01-20T23:52:03.602Z,12.87
2024-01-20T23:54:31.145Z,13.00
2024-01-20T23:57:00.665Z,12.53
2024-01-20T23:59:28.209Z,12.57
